createdAt,value
2018-08-03T00:00:47.983Z,9.60
2018-08-03T00:03:17.859Z,10.50
2018-08-03T00:05:47.815Z,14.53
2018-08-03T00:08:17.710Z,9.73
2018-08-03T00:10:47.696Z,9.00
2018-08-03T00:13:17.680Z,10.67
2018-08-03T00:15:47.560Z,11.57
2018-08-03T00:18:17.577Z,9.27
2018-08-03T00:20:47.455Z,9.83
2018-08-03T00:23:17.391Z,9.87
2018-08-03T00:25:47.371Z,12.00
2018-08-03T00:28:17.380Z,10.13
2018-08-03T00:30:47.338Z,10.47
2018-08-03T00:33:17.435Z,9.83
2018-08-03T00:35:47.393Z,10.93
2018-08-03T00:38:17.328Z,9.73
2018-08-03T00:40:47.247Z,9.07
2018-08-03T00:43:17.160Z,10.17
2018-08-03T00:45:47.105Z,10.37
2018-08-03T00:48:17.259Z,8.67
2018-08-03T00:50:47.460Z,9.17
2018-08-03T00:53:17.348Z,13.20
2018-08-03T00:55:47.540Z,9.13
2018-08-03T00:58:17.332Z,12.37
2018-08-03T01:00:47.511Z,10.27
2018-08-03T01:03:17.475Z,9.87
2018-08-03T01:05:47.348Z,12.47
2018-08-03T01:08:17.283Z,10.63
2018-08-03T01:10:47.534Z,11.80
2018-08-03T01:13:17.383Z,9.37
2018-08-03T01:15:47.218Z,11.53
2018-08-03T01:18:17.188Z,10.10
2018-08-03T01:20:47.099Z,10.13
2018-08-03T01:23:17.030Z,10.47
2018-08-03T01:25:46.863Z,10.00
2018-08-03T01:28:16.874Z,10.77
2018-08-03T01:30:46.848Z,11.80
2018-08-03T01:33:16.894Z,9.73
2018-08-03T01:35:46.704Z,9.77
2018-08-03T01:38:16.664Z,12.57
2018-08-03T01:40:46.740Z,10.67
2018-08-03T01:43:16.742Z,10.57
2018-08-03T01:45:46.638Z,10.67
2018-08-03T01:48:16.544Z,10.23
2018-08-03T01:50:46.518Z,9.10
2018-08-03T01:53:16.396Z,10.30
2018-08-03T01:55:46.276Z,12.50
2018-08-03T01:58:16.257Z,10.77
2018-08-03T02:00:46.167Z,10.60
2018-08-03T02:03:16.101Z,9.60
2018-08-03T02:05:46.035Z,9.73
2018-08-03T02:08:15.945Z,12.50
2018-08-03T02:10:45.980Z,13.77
2018-08-03T02:13:15.744Z,10.30
2018-08-03T02:15:45.561Z,10.33
2018-08-03T02:18:15.561Z,10.97
2018-08-03T02:20:45.376Z,9.37
2018-08-03T02:23:15.288Z,8.10
2018-08-03T02:25:45.222Z,12.77
2018-08-03T02:28:15.176Z,8.93
2018-08-03T02:30:45.037Z,9.40
2018-08-03T02:33:14.808Z,8.70
2018-08-03T02:35:44.861Z,11.40
2018-08-03T02:38:14.931Z,8.30
2018-08-03T02:40:44.941Z,11.80
2018-08-03T02:43:14.837Z,9.93
2018-08-03T02:45:44.955Z,10.53
2018-08-03T02:48:14.787Z,11.90
2018-08-03T02:50:44.717Z,8.93
2018-08-03T02:53:14.707Z,11.03
2018-08-03T02:55:44.796Z,10.03
2018-08-03T02:58:14.644Z,9.30
2018-08-03T03:00:44.660Z,10.57
2018-08-03T03:03:14.428Z,9.90
2018-08-03T03:05:44.246Z,13.43
2018-08-03T03:08:14.092Z,12.13
2018-08-03T03:10:43.936Z,12.73
2018-08-03T03:13:13.804Z,11.60
2018-08-03T03:15:43.800Z,10.87
2018-08-03T03:18:13.771Z,9.47
2018-08-03T03:20:43.638Z,9.87
2018-08-03T03:23:13.633Z,10.80
2018-08-03T03:25:43.562Z,16.63
2018-08-03T03:28:13.415Z,9.80
2018-08-03T03:30:43.289Z,8.40
2018-08-03T03:33:13.229Z,9.70
2018-08-03T03:35:43.132Z,11.20
2018-08-03T03:38:13.099Z,8.63
2018-08-03T03:40:43.030Z,11.90
2018-08-03T03:43:13.028Z,11.60
2018-08-03T03:45:43.135Z,12.97
2018-08-03T03:48:13.131Z,16.57
2018-08-03T03:50:42.916Z,36.30
2018-08-03T03:53:13.018Z,19.53
2018-08-03T03:55:43.029Z,13.23
2018-08-03T03:58:12.913Z,35.40
2018-08-03T04:00:42.736Z,50.73
2018-08-03T04:03:12.767Z,28.47
2018-08-03T04:05:42.547Z,19.80
2018-08-03T04:08:12.432Z,21.37
2018-08-03T04:10:42.342Z,21.77
2018-08-03T04:13:12.195Z,19.90
2018-08-03T04:15:42.056Z,17.60
2018-08-03T04:18:18.983Z,17.27
2018-08-03T04:20:49.228Z,19.00
2018-08-03T04:23:19.310Z,18.57
2018-08-03T04:25:49.290Z,16.50
2018-08-03T04:28:19.138Z,18.30
2018-08-03T04:30:49.091Z,15.83
2018-08-03T04:33:18.983Z,15.33
2018-08-03T04:35:48.852Z,15.23
2018-08-03T04:38:18.717Z,12.40
2018-08-03T04:40:48.628Z,16.33
2018-08-03T04:43:18.408Z,14.20
2018-08-03T04:45:48.339Z,18.97
2018-08-03T04:48:18.407Z,23.60
2018-08-03T04:50:48.258Z,17.90
2018-08-03T04:53:18.106Z,18.60
2018-08-03T04:55:47.979Z,21.93
2018-08-03T04:58:17.819Z,19.43
2018-08-03T05:00:47.671Z,18.37
2018-08-03T05:03:17.514Z,17.50
2018-08-03T05:05:47.551Z,19.20
2018-08-03T05:08:17.540Z,20.13
2018-08-03T05:10:47.855Z,20.27
2018-08-03T05:13:17.770Z,22.73
2018-08-03T05:15:47.699Z,31.87
2018-08-03T05:18:17.652Z,21.90
2018-08-03T05:20:47.455Z,18.67
2018-08-03T05:23:17.631Z,19.00
2018-08-03T05:25:47.649Z,24.97
2018-08-03T05:28:17.532Z,27.83
2018-08-03T05:30:47.360Z,19.17
2018-08-03T05:33:17.228Z,26.97
2018-08-03T05:35:47.027Z,31.50
2018-08-03T05:38:16.930Z,21.70
2018-08-03T05:40:46.935Z,25.80
2018-08-03T05:43:16.908Z,23.23
2018-08-03T05:45:46.823Z,19.27
2018-08-03T05:48:16.670Z,22.23
2018-08-03T05:50:46.589Z,20.40
2018-08-03T05:53:16.607Z,19.37
2018-08-03T05:55:46.560Z,22.77
2018-08-03T05:58:16.446Z,20.73
2018-08-03T06:00:46.482Z,26.43
2018-08-03T06:03:16.384Z,22.37
2018-08-03T06:05:46.392Z,19.43
2018-08-03T06:08:16.338Z,22.23
2018-08-03T06:10:46.177Z,21.30
2018-08-03T06:13:16.087Z,19.60
2018-08-03T06:15:45.948Z,25.33
2018-08-03T06:18:15.899Z,18.13
2018-08-03T06:20:45.826Z,25.87
2018-08-03T06:23:15.787Z,24.03
2018-08-03T06:25:45.633Z,19.63
2018-08-03T06:28:15.559Z,22.87
2018-08-03T06:30:45.440Z,29.40
2018-08-03T06:33:15.511Z,19.43
2018-08-03T06:35:45.513Z,18.50
2018-08-03T06:38:15.407Z,26.17
2018-08-03T06:40:45.271Z,20.03
2018-08-03T06:43:15.083Z,14.10
2018-08-03T06:45:44.985Z,14.73
2018-08-03T06:48:14.978Z,16.53
2018-08-03T06:50:44.814Z,18.63
2018-08-03T06:53:14.747Z,17.33
2018-08-03T06:55:44.632Z,21.23
2018-08-03T06:58:14.538Z,18.97
2018-08-03T07:00:44.395Z,23.40
2018-08-03T07:06:43.751Z,21.40
2018-08-03T07:12:14.092Z,14.67
2018-08-03T07:14:49.710Z,14.17
2018-08-03T07:17:20.157Z,14.53
2018-08-03T07:24:52.854Z,13.07
2018-08-03T07:27:22.722Z,10.73
2018-08-03T07:29:52.726Z,9.83
2018-08-03T07:32:22.559Z,10.43
2018-08-03T07:34:52.371Z,10.80
2018-08-03T07:37:22.162Z,11.23
2018-08-03T07:39:52.009Z,8.80
2018-08-03T07:42:21.822Z,8.40
2018-08-03T07:44:51.680Z,8.40
2018-08-03T07:47:21.627Z,11.33
2018-08-03T07:49:51.515Z,8.30
2018-08-03T07:52:21.441Z,7.50
2018-08-03T07:54:51.273Z,12.57
2018-08-03T07:57:21.119Z,6.67
2018-08-03T07:59:51.003Z,11.33
2018-08-03T08:02:20.886Z,10.83
2018-08-03T08:04:51.167Z,9.17
2018-08-03T08:07:21.036Z,8.20
2018-08-03T08:09:51.000Z,8.10
2018-08-03T08:12:20.897Z,9.87
2018-08-03T08:14:50.815Z,7.80
2018-08-03T08:17:20.662Z,8.27
2018-08-03T08:19:50.549Z,10.53
2018-08-03T08:22:20.311Z,8.43
2018-08-03T08:24:50.113Z,8.17
2018-08-03T08:27:19.979Z,6.83
2018-08-03T08:29:49.838Z,10.93
2018-08-03T08:32:19.763Z,9.90
2018-08-03T08:34:49.657Z,9.00
2018-08-03T08:37:19.729Z,7.03
2018-08-03T08:39:49.767Z,9.90
2018-08-03T08:42:19.660Z,7.07
2018-08-03T08:44:49.636Z,7.00
2018-08-03T08:47:19.488Z,7.57
2018-08-03T08:49:49.385Z,8.70
2018-08-03T08:52:19.435Z,10.90
2018-08-03T08:54:49.399Z,6.83
2018-08-03T08:57:19.179Z,10.00
2018-08-03T08:59:49.129Z,7.13
2018-08-03T09:02:19.319Z,7.13
2018-08-03T09:04:49.270Z,8.80
2018-08-03T09:07:19.195Z,6.83
2018-08-03T09:09:49.028Z,7.80
2018-08-03T09:12:18.902Z,7.37
2018-08-03T09:14:48.727Z,8.67
2018-08-03T09:17:18.592Z,12.50
2018-08-03T09:19:48.460Z,10.93
2018-08-03T09:22:18.279Z,6.43
2018-08-03T09:24:48.083Z,8.07
2018-08-03T09:27:17.862Z,7.80
2018-08-03T09:29:47.798Z,7.40
2018-08-03T09:32:17.636Z,9.00
2018-08-03T09:34:47.470Z,6.80
2018-08-03T09:37:17.329Z,7.97
2018-08-03T09:39:47.204Z,7.90
2018-08-03T09:42:17.008Z,8.33
2018-08-03T09:44:47.033Z,7.87
2018-08-03T09:47:16.887Z,6.83
2018-08-03T09:49:46.698Z,6.77
2018-08-03T09:52:16.570Z,6.57
2018-08-03T09:54:46.426Z,5.40
2018-08-03T09:57:16.428Z,6.40
2018-08-03T09:59:46.349Z,8.90
2018-08-03T10:02:16.216Z,8.80
2018-08-03T10:04:46.142Z,5.83
2018-08-03T10:07:16.164Z,6.23
2018-08-03T10:09:45.976Z,9.43
2018-08-03T10:12:15.826Z,9.60
2018-08-03T10:14:45.730Z,7.17
2018-08-03T10:17:15.600Z,6.03
2018-08-03T10:19:45.374Z,6.37
2018-08-03T10:22:15.179Z,5.53
2018-08-03T10:24:44.991Z,6.53
2018-08-03T10:27:14.908Z,9.77
2018-08-03T10:29:44.837Z,6.23
2018-08-03T10:32:14.727Z,7.13
2018-08-03T10:34:44.554Z,6.83
2018-08-03T10:37:14.343Z,6.30
2018-08-03T10:39:44.207Z,10.77
2018-08-03T10:42:14.136Z,7.17
2018-08-03T10:44:44.030Z,7.23
2018-08-03T10:47:14.012Z,5.97
2018-08-03T10:49:43.787Z,6.17
2018-08-03T10:52:13.677Z,7.90
2018-08-03T10:54:43.474Z,5.50
2018-08-03T10:57:13.359Z,6.00
2018-08-03T10:59:43.144Z,5.93
2018-08-03T11:02:13.168Z,6.67
2018-08-03T11:04:43.064Z,9.77
2018-08-03T11:07:12.966Z,5.23
2018-08-03T11:09:42.910Z,7.40
2018-08-03T11:12:12.866Z,8.00
2018-08-03T11:14:42.671Z,7.37
2018-08-03T11:17:12.485Z,9.33
2018-08-03T11:19:42.355Z,9.60
2018-08-03T11:22:12.259Z,7.50
2018-08-03T11:24:42.123Z,8.67
2018-08-03T11:27:11.938Z,6.17
2018-08-03T11:29:41.786Z,13.73
2018-08-03T11:32:11.795Z,9.27
2018-08-03T11:34:41.675Z,8.07
2018-08-03T11:37:11.435Z,9.70
2018-08-03T11:39:41.219Z,8.17
2018-08-03T11:42:11.024Z,6.87
2018-08-03T11:44:40.892Z,6.87
2018-08-03T11:47:10.749Z,8.43
2018-08-03T11:49:40.615Z,9.87
2018-08-03T11:52:10.531Z,7.67
2018-08-03T11:54:40.512Z,6.43
2018-08-03T11:57:10.284Z,8.83
2018-08-03T11:59:40.240Z,9.07
2018-08-03T12:02:10.153Z,7.20
2018-08-03T12:04:40.612Z,8.03
2018-08-03T12:07:10.455Z,6.70
2018-08-03T12:09:40.357Z,7.00
2018-08-03T12:12:10.324Z,8.20
2018-08-03T12:14:40.264Z,5.97
2018-08-03T12:17:10.359Z,7.70
2018-08-03T12:19:40.516Z,5.97
2018-08-03T12:22:10.484Z,6.93
2018-08-03T12:24:40.244Z,7.10
2018-08-03T12:27:10.268Z,5.97
2018-08-03T12:29:40.235Z,6.60
2018-08-03T12:32:10.129Z,7.23
2018-08-03T12:34:40.107Z,8.17
2018-08-03T12:37:09.983Z,7.43
2018-08-03T12:39:39.936Z,6.87
2018-08-03T12:42:09.827Z,8.00
2018-08-03T12:44:39.658Z,10.20
2018-08-03T12:47:09.563Z,6.77
2018-08-03T12:49:39.415Z,6.70
2018-08-03T12:52:09.193Z,6.63
2018-08-03T12:54:39.039Z,9.30
2018-08-03T12:57:08.895Z,7.97
2018-08-03T12:59:39.027Z,7.90
2018-08-03T13:02:08.963Z,7.30
2018-08-03T13:04:38.869Z,9.27
2018-08-03T13:07:08.899Z,11.77
2018-08-03T13:09:38.720Z,7.83
2018-08-03T13:12:08.648Z,10.03
2018-08-03T13:14:38.541Z,7.17
2018-08-03T13:17:08.451Z,6.93
2018-08-03T13:19:38.412Z,8.50
2018-08-03T13:22:17.716Z,7.87
2018-08-03T13:24:47.728Z,8.57
2018-08-03T13:27:17.997Z,12.80
2018-08-03T13:29:47.816Z,9.80
2018-08-03T13:32:17.646Z,7.03
2018-08-03T13:34:47.544Z,6.63
2018-08-03T13:37:17.386Z,7.23
2018-08-03T13:39:47.152Z,8.23
2018-08-03T13:42:17.063Z,7.87
2018-08-03T13:44:47.046Z,8.73
2018-08-03T13:47:16.876Z,6.83
2018-08-03T13:49:46.747Z,7.67
2018-08-03T13:52:16.504Z,9.70
2018-08-03T13:54:46.423Z,8.07
2018-08-03T13:57:16.323Z,7.53
2018-08-03T13:59:46.159Z,10.90
2018-08-03T14:02:23.439Z,7.13
2018-08-03T14:04:54.015Z,7.97
2018-08-03T14:07:24.805Z,7.23
2018-08-03T14:09:54.806Z,7.07
2018-08-03T14:12:24.687Z,7.00
2018-08-03T14:14:54.601Z,6.70
2018-08-03T14:17:24.479Z,7.33
2018-08-03T14:19:55.477Z,6.80
2018-08-03T14:22:25.324Z,9.20
2018-08-03T14:24:55.467Z,7.83
2018-08-03T14:27:25.305Z,10.73
2018-08-03T14:29:55.083Z,6.67
2018-08-03T14:32:25.055Z,6.10
2018-08-03T14:34:54.971Z,8.67
2018-08-03T14:37:24.887Z,7.77
2018-08-03T14:39:54.936Z,10.37
2018-08-03T14:42:24.816Z,8.30
2018-08-03T14:44:54.752Z,8.37
2018-08-03T14:47:24.716Z,9.37
2018-08-03T14:49:56.047Z,8.70
2018-08-03T14:52:26.215Z,8.70
2018-08-03T14:54:56.512Z,12.57
2018-08-03T14:57:26.643Z,7.40
2018-08-03T14:59:56.622Z,6.97
2018-08-03T15:02:26.568Z,7.83
2018-08-03T15:04:56.544Z,7.27
2018-08-03T15:07:26.536Z,11.33
2018-08-03T15:09:56.385Z,7.87
2018-08-03T15:12:26.372Z,8.50
2018-08-03T15:14:56.206Z,9.73
2018-08-03T15:17:26.145Z,10.20
2018-08-03T15:19:56.003Z,7.70
2018-08-03T15:22:26.272Z,7.90
2018-08-03T15:24:56.432Z,10.87
2018-08-03T15:27:26.204Z,8.93
2018-08-03T15:29:56.007Z,9.43
2018-08-03T15:32:25.868Z,10.60
2018-08-03T15:34:55.636Z,7.73
2018-08-03T15:37:25.652Z,9.20
2018-08-03T15:39:55.676Z,10.30
2018-08-03T15:42:25.506Z,9.30
2018-08-03T15:44:55.499Z,11.27
2018-08-03T15:47:25.531Z,8.93
2018-08-03T15:49:55.417Z,8.60
2018-08-03T15:52:25.309Z,7.93
2018-08-03T15:54:55.252Z,8.67
2018-08-03T15:57:25.132Z,7.43
2018-08-03T15:59:54.980Z,9.80
2018-08-03T16:02:25.112Z,10.83
2018-08-03T16:04:54.910Z,9.20
2018-08-03T16:07:25.097Z,8.47
2018-08-03T16:09:55.154Z,36.68
2018-08-03T16:12:25.141Z,20.40
2018-08-03T16:14:55.184Z,11.63
2018-08-03T16:17:25.008Z,10.77
2018-08-03T16:19:54.825Z,7.63
2018-08-03T16:22:24.752Z,12.50
2018-08-03T16:24:54.727Z,11.53
2018-08-03T16:27:24.675Z,38.45
2018-08-03T16:29:54.545Z,19.23
2018-08-03T16:32:24.520Z,33.43
2018-08-03T16:34:54.398Z,9.20
2018-08-03T16:37:24.284Z,36.90
2018-08-03T16:39:54.241Z,33.67
2018-08-03T16:42:24.242Z,16.87
2018-08-03T16:44:54.095Z,15.27
2018-08-03T16:47:24.220Z,12.43
2018-08-03T16:49:54.076Z,21.90
2018-08-03T16:52:23.954Z,17.07
2018-08-03T16:54:53.740Z,16.83
2018-08-03T16:57:23.719Z,12.80
2018-08-03T16:59:53.576Z,14.40
2018-08-03T17:02:23.696Z,12.23
2018-08-03T17:04:53.689Z,10.53
2018-08-03T17:07:23.797Z,10.87
2018-08-03T17:09:53.905Z,16.10
2018-08-03T17:12:23.752Z,13.53
2018-08-03T17:14:53.728Z,12.70
2018-08-03T17:17:23.567Z,10.53
2018-08-03T17:19:53.605Z,13.47
2018-08-03T17:22:23.542Z,11.20
2018-08-03T17:24:53.495Z,14.60
2018-08-03T17:27:23.356Z,10.73
2018-08-03T17:29:53.175Z,10.40
2018-08-03T17:32:23.153Z,11.23
2018-08-03T17:34:53.039Z,11.87
2018-08-03T17:37:22.883Z,9.90
2018-08-03T17:39:53.255Z,14.37
2018-08-03T17:42:23.201Z,10.23
2018-08-03T17:44:53.031Z,12.10
2018-08-03T17:47:22.993Z,9.20
2018-08-03T17:49:52.924Z,9.53
2018-08-03T17:52:22.780Z,13.40
2018-08-03T17:54:52.862Z,15.13
2018-08-03T17:57:22.675Z,12.97
2018-08-03T17:59:52.547Z,12.23
2018-08-03T18:02:22.487Z,15.50
2018-08-03T18:04:52.271Z,12.13
2018-08-03T18:07:22.135Z,10.23
2018-08-03T18:09:52.111Z,20.73
2018-08-03T18:12:21.995Z,24.07
2018-08-03T18:14:52.783Z,10.37
2018-08-03T18:17:23.860Z,21.87
2018-08-03T18:19:54.668Z,20.67
2018-08-03T18:22:24.492Z,20.00
2018-08-03T18:24:54.292Z,21.17
2018-08-03T18:27:24.218Z,16.97
2018-08-03T18:29:54.246Z,13.63
2018-08-03T18:32:24.192Z,14.60
2018-08-03T18:34:54.108Z,13.43
2018-08-03T18:37:23.971Z,14.93
2018-08-03T18:39:53.863Z,16.60
2018-08-03T18:42:23.767Z,17.53
2018-08-03T18:44:53.584Z,19.57
2018-08-03T18:47:23.480Z,18.50
2018-08-03T18:49:53.314Z,15.53
2018-08-03T18:52:23.209Z,14.23
2018-08-03T18:54:53.115Z,14.13
2018-08-03T18:57:22.985Z,16.13
2018-08-03T18:59:52.999Z,13.77
2018-08-03T19:02:22.905Z,14.07
2018-08-03T19:04:52.874Z,12.17
2018-08-03T19:07:22.823Z,11.80
2018-08-03T19:09:55.552Z,15.43
2018-08-03T19:12:25.355Z,9.47
2018-08-03T19:14:55.189Z,12.23
2018-08-03T19:17:24.983Z,17.73
2018-08-03T19:19:54.809Z,155.17
2018-08-03T19:22:24.763Z,116.97
2018-08-03T19:24:54.672Z,63.00
2018-08-03T19:27:24.479Z,47.43
2018-08-03T19:29:54.332Z,37.90
2018-08-03T19:32:24.190Z,27.47
2018-08-03T19:34:53.987Z,28.20
2018-08-03T19:37:23.782Z,31.30
2018-08-03T19:39:53.667Z,31.07
2018-08-03T19:42:23.509Z,35.27
2018-08-03T19:44:53.425Z,41.47
2018-08-03T19:47:23.487Z,43.77
2018-08-03T19:49:53.391Z,57.40
2018-08-03T19:52:23.260Z,52.27
2018-08-03T19:54:53.106Z,66.87
2018-08-03T19:57:23.057Z,66.33
2018-08-03T19:59:52.842Z,80.03
2018-08-03T20:02:22.864Z,56.13
2018-08-03T20:04:52.660Z,38.53
2018-08-03T20:07:22.531Z,38.33
2018-08-03T20:09:52.459Z,33.20
2018-08-03T20:12:22.307Z,33.97
2018-08-03T20:14:52.134Z,31.70
2018-08-03T20:17:22.085Z,40.13
2018-08-03T20:19:51.949Z,27.80
2018-08-03T20:22:21.816Z,29.97
2018-08-03T20:24:51.691Z,26.60
2018-08-03T20:27:21.611Z,30.30
2018-08-03T20:29:51.452Z,22.40
2018-08-03T20:32:21.304Z,19.23
2018-08-03T20:34:51.184Z,21.10
2018-08-03T20:37:21.080Z,18.47
2018-08-03T20:39:50.915Z,20.07
2018-08-03T20:42:20.975Z,22.43
2018-08-03T20:44:50.813Z,22.47
2018-08-03T20:47:20.651Z,21.67
2018-08-03T20:49:50.448Z,22.27
2018-08-03T20:52:20.437Z,20.43
2018-08-03T20:54:50.307Z,21.13
2018-08-03T20:57:20.121Z,19.73
2018-08-03T20:59:49.996Z,21.90
2018-08-03T21:02:19.784Z,16.97
2018-08-03T21:04:49.575Z,17.17
2018-08-03T21:07:19.437Z,18.20
2018-08-03T21:09:49.281Z,24.20
2018-08-03T21:12:19.180Z,17.83
2018-08-03T21:14:49.015Z,22.83
2018-08-03T21:17:18.986Z,21.73
2018-08-03T21:19:48.851Z,16.43
2018-08-03T21:22:18.733Z,15.90
2018-08-03T21:24:48.652Z,15.03
2018-08-03T21:27:18.527Z,14.80
2018-08-03T21:29:48.360Z,17.10
2018-08-03T21:32:18.287Z,17.27
2018-08-03T21:34:48.231Z,15.93
2018-08-03T21:37:17.999Z,13.70
2018-08-03T21:39:47.823Z,18.93
2018-08-03T21:42:17.765Z,13.53
2018-08-03T21:44:47.787Z,14.23
2018-08-03T21:47:17.640Z,14.03
2018-08-03T21:49:47.451Z,14.73
2018-08-03T21:52:17.302Z,15.50
2018-08-03T21:54:47.323Z,16.63
2018-08-03T21:57:17.251Z,13.53
2018-08-03T21:59:47.126Z,14.00
2018-08-03T22:02:16.941Z,15.87
2018-08-03T22:04:46.816Z,15.30
2018-08-03T22:07:16.682Z,12.27
2018-08-03T22:09:46.518Z,13.97
2018-08-03T22:12:16.378Z,12.80
2018-08-03T22:14:46.334Z,12.60
2018-08-03T22:17:16.245Z,14.93
2018-08-03T22:19:46.113Z,20.73
2018-08-03T22:22:15.863Z,12.13
2018-08-03T22:24:45.658Z,12.77
2018-08-03T22:27:15.488Z,15.10
2018-08-03T22:29:45.298Z,12.73
2018-08-03T22:32:15.137Z,13.10
2018-08-03T22:34:44.976Z,11.53
2018-08-03T22:37:14.826Z,15.67
2018-08-03T22:39:44.640Z,12.27
2018-08-03T22:42:14.438Z,15.00
2018-08-03T22:44:44.392Z,11.83
2018-08-03T22:47:14.191Z,12.03
2018-08-03T22:49:44.147Z,13.30
2018-08-03T22:52:13.963Z,13.13
2018-08-03T22:54:43.806Z,13.13
2018-08-03T22:57:13.607Z,14.10
2018-08-03T22:59:43.547Z,13.17
2018-08-03T23:02:13.356Z,12.20
2018-08-03T23:04:43.190Z,12.83
2018-08-03T23:07:13.050Z,13.80
2018-08-03T23:09:43.054Z,13.30
2018-08-03T23:12:12.888Z,12.90
2018-08-03T23:14:42.749Z,11.30
2018-08-03T23:17:12.633Z,11.23
2018-08-03T23:19:42.500Z,11.90
2018-08-03T23:22:12.379Z,11.30
2018-08-03T23:24:42.464Z,11.23
2018-08-03T23:27:12.282Z,12.50
2018-08-03T23:29:42.067Z,10.43
2018-08-03T23:32:11.916Z,11.47
2018-08-03T23:34:41.707Z,10.43
2018-08-03T23:37:12.479Z,13.30
2018-08-03T23:39:42.324Z,11.63
2018-08-03T23:42:12.411Z,11.80
2018-08-03T23:44:42.404Z,11.60
2018-08-03T23:47:12.326Z,11.53
2018-08-03T23:49:42.216Z,9.73
2018-08-03T23:52:12.104Z,12.60
2018-08-03T23:54:42.060Z,13.63
2018-08-03T23:57:11.878Z,12.80
2018-08-03T23:59:41.974Z,12.10
